createdAt,value
2023-03-26T00:00:44.275Z,70.64
2023-03-26T00:09:27.215Z,70.66
2023-03-26T00:17:51.210Z,70.78
2023-03-26T00:26:17.653Z,70.75
2023-03-26T00:34:41.513Z,71.14
2023-03-26T00:43:18.516Z,70.84
2023-03-26T00:51:41.973Z,70.92
2023-03-26T01:00:10.304Z,70.94
2023-03-26T01:08:46.853Z,70.80
2023-03-26T01:17:12.564Z,70.87
2023-03-26T01:25:44.743Z,70.80
2023-03-26T01:34:49.866Z,70.71
2023-03-26T01:43:25.750Z,70.98
2023-03-26T01:51:50.963Z,71.12
2023-03-26T02:00:23.720Z,71.07
2023-03-26T02:08:58.516Z,71.00
2023-03-26T02:17:24.343Z,71.14
2023-03-26T02:25:48.056Z,70.93
2023-03-26T02:34:11.608Z,71.17
2023-03-26T02:42:36.241Z,71.11
2023-03-26T02:50:59.490Z,71.12
2023-03-26T02:59:23.043Z,71.24
2023-03-26T03:08:00.982Z,71.25
2023-03-26T03:16:24.813Z,71.43
2023-03-26T03:24:49.734Z,71.42
2023-03-26T03:33:13.208Z,71.34
2023-03-26T03:41:36.708Z,71.44
2023-03-26T03:50:01.424Z,71.40
2023-03-26T03:58:28.364Z,71.36
2023-03-26T04:06:55.993Z,71.30
2023-03-26T04:15:19.610Z,71.36
2023-03-26T04:23:43.183Z,71.67
2023-03-26T04:32:26.677Z,71.84
2023-03-26T04:40:50.913Z,71.83
2023-03-26T04:49:41.446Z,71.94
2023-03-26T04:58:06.115Z,71.74
2023-03-26T05:06:50.637Z,72.07
2023-03-26T05:15:23.443Z,71.79
2023-03-26T05:23:58.712Z,71.61
2023-03-26T05:32:22.296Z,71.94
2023-03-26T05:40:47.690Z,72.09
2023-03-26T05:49:15.350Z,72.10
2023-03-26T05:57:39.255Z,72.15
2023-03-26T06:06:21.504Z,72.48
2023-03-26T06:14:50.792Z,72.39
2023-03-26T06:23:25.972Z,72.49
2023-03-26T06:32:18.316Z,72.70
2023-03-26T06:40:54.074Z,72.70
2023-03-26T06:49:38.289Z,72.66
2023-03-26T06:58:22.372Z,72.68
2023-03-26T07:07:04.161Z,72.83
2023-03-26T07:15:48.797Z,72.95
2023-03-26T07:24:38.319Z,72.64
2023-03-26T07:33:16.292Z,72.81
2023-03-26T07:41:51.273Z,72.81
2023-03-26T07:50:34.991Z,72.94
2023-03-26T07:59:31.165Z,73.11
2023-03-26T08:08:50.537Z,73.13
2023-03-26T08:18:02.751Z,73.20
2023-03-26T08:26:36.398Z,73.24
2023-03-26T08:35:00.309Z,73.37
2023-03-26T08:43:48.682Z,73.49
2023-03-26T08:52:36.860Z,73.38
2023-03-26T09:01:03.011Z,73.36
2023-03-26T09:09:37.201Z,73.29
2023-03-26T09:18:48.317Z,73.24
2023-03-26T09:27:31.051Z,73.41
2023-03-26T09:35:55.701Z,73.30
2023-03-26T09:44:43.960Z,73.24
2023-03-26T09:53:10.010Z,73.24
2023-03-26T10:01:42.090Z,73.16
2023-03-26T10:10:47.170Z,73.23
2023-03-26T10:19:21.963Z,73.26
2023-03-26T10:28:06.409Z,73.39
2023-03-26T10:36:42.469Z,73.08
2023-03-26T10:45:24.452Z,73.30
2023-03-26T10:53:59.194Z,73.03
2023-03-26T11:02:31.148Z,73.01
2023-03-26T11:11:15.667Z,72.97
2023-03-26T11:20:03.349Z,72.73
2023-03-26T11:29:03.211Z,72.89
2023-03-26T11:37:42.838Z,73.01
2023-03-26T11:46:14.903Z,72.80
2023-03-26T11:54:39.042Z,72.59
2023-03-26T12:03:02.870Z,72.58
2023-03-26T12:11:33.880Z,72.65
2023-03-26T12:19:58.979Z,72.56
2023-03-26T12:28:22.863Z,72.54
2023-03-26T12:37:07.739Z,72.42
2023-03-26T12:45:39.404Z,72.49
2023-03-26T12:54:38.568Z,72.40
2023-03-26T13:03:20.950Z,72.50
2023-03-26T13:12:07.527Z,72.34
2023-03-26T13:20:59.022Z,72.05
2023-03-26T13:29:34.121Z,72.00
2023-03-26T13:38:00.106Z,71.57
2023-03-26T13:46:28.793Z,71.54
2023-03-26T13:55:07.542Z,71.41
2023-03-26T14:03:39.666Z,71.27
2023-03-26T14:12:35.335Z,71.49
2023-03-26T14:21:18.950Z,71.64
2023-03-26T14:30:04.321Z,71.66
2023-03-26T14:38:46.169Z,71.56
2023-03-26T14:47:09.384Z,71.57
2023-03-26T14:55:39.175Z,71.42
2023-03-26T15:04:20.741Z,71.65
2023-03-26T15:13:13.615Z,71.79
2023-03-26T15:22:01.448Z,71.50
2023-03-26T15:30:58.387Z,71.59
2023-03-26T15:40:10.329Z,71.42
2023-03-26T15:48:36.027Z,71.83
2023-03-26T15:57:08.294Z,71.45
2023-03-26T16:06:03.723Z,71.72
2023-03-26T16:14:36.472Z,71.54
2023-03-26T16:23:04.604Z,71.59
2023-03-26T16:31:38.195Z,71.75
2023-03-26T16:40:22.249Z,71.58
2023-03-26T16:49:05.066Z,71.33
2023-03-26T16:57:51.169Z,71.32
2023-03-26T17:06:41.738Z,71.36
2023-03-26T17:15:41.250Z,71.32
2023-03-26T17:24:15.255Z,71.40
2023-03-26T17:33:03.685Z,71.38
2023-03-26T17:41:50.553Z,71.20
2023-03-26T17:50:16.002Z,71.03
2023-03-26T17:58:47.974Z,71.01
2023-03-26T18:07:29.928Z,71.12
2023-03-26T18:16:13.738Z,71.11
2023-03-26T18:24:38.922Z,71.03
2023-03-26T18:33:14.426Z,70.99
2023-03-26T18:41:41.835Z,70.92
2023-03-26T18:50:06.490Z,70.93
2023-03-26T18:58:32.965Z,71.03
2023-03-26T19:06:57.049Z,71.01
2023-03-26T19:15:21.017Z,71.23
2023-03-26T19:23:46.925Z,71.25
2023-03-26T19:32:32.643Z,71.03
2023-03-26T19:40:58.487Z,71.00
2023-03-26T19:49:32.126Z,71.22
2023-03-26T19:57:55.494Z,70.87
2023-03-26T20:06:30.746Z,70.83
2023-03-26T20:15:02.249Z,70.79
2023-03-26T20:23:27.742Z,70.75
2023-03-26T20:31:50.841Z,70.84
2023-03-26T20:40:15.869Z,70.57
2023-03-26T20:48:38.873Z,70.43
2023-03-26T20:57:02.674Z,70.42
2023-03-26T21:05:29.241Z,70.54
2023-03-26T21:14:02.062Z,70.64
2023-03-26T21:22:30.643Z,70.56
2023-03-26T21:30:53.987Z,70.38
2023-03-26T21:39:18.335Z,70.51
2023-03-26T21:47:42.816Z,70.43
2023-03-26T21:56:27.778Z,70.49
2023-03-26T22:05:02.997Z,70.44
2023-03-26T22:13:26.072Z,70.20
2023-03-26T22:21:50.796Z,70.24
2023-03-26T22:30:15.547Z,70.30
2023-03-26T22:38:38.744Z,70.28
2023-03-26T22:47:01.619Z,70.37
2023-03-26T22:55:28.522Z,70.15
2023-03-26T23:03:54.345Z,70.24
2023-03-26T23:12:18.253Z,70.24
2023-03-26T23:20:45.063Z,70.28
2023-03-26T23:29:08.031Z,70.21
2023-03-26T23:37:35.218Z,70.37
2023-03-26T23:45:59.560Z,70.34
2023-03-26T23:54:25.717Z,70.33
